AIRPORT METAR

METAR FOR LIME
ADDS - METARS form results

(1614 UTC 04 June 2020)
Data provider http://aviationweather.gov/metar/data/
 
METAR text: LIME 041550Z 08004KT 040V100 8000 RA SCT015 BKN040 15/14 Q1000 NOSIG
Conditions at: LIME (BERGAMO/ORIO SER, IT) observed 1550 UTC 04 June 2020
Temperature: 15.0°C (59°F)
Dewpoint: 14.0°C (57°F) [RH = 94%]
Pressure (altimeter): 29.53 inches Hg (1000.0 mb)
Winds: from the E (80 degrees) at 5 MPH (4 knots; 2.1 m/s)
Visibility: 5 miles ( 8 km)
Ceiling: 4000 feet AGL
Clouds: scattered clouds at 1500 feet AGL
broken clouds at 4000 feet AGL
Weather: RA  (moderate rain)

METAR text: LIME 041520Z 07004KT 040V100 8000 -RA SCT015 BKN040 15/14 Q1000 NOSIG
Conditions at: LIME (BERGAMO/ORIO SER, IT) observed 1520 UTC 04 June 2020
Temperature: 15.0°C (59°F)
Dewpoint: 14.0°C (57°F) [RH = 94%]
Pressure (altimeter): 29.53 inches Hg (1000.0 mb)
Winds: from the ENE (70 degrees) at 5 MPH (4 knots; 2.1 m/s)
Visibility: 5 miles ( 8 km)
Ceiling: 4000 feet AGL
Clouds: scattered clouds at 1500 feet AGL
broken clouds at 4000 feet AGL
Weather: -RA  (light rain)

Forecast for: LIME (BERGAMO/ORIO SER, IT)
Text: TAF LIME 041100Z 0412/0512 VRB05KT 9999 BKN040
Forecast period: 1200 UTC 04 June 2020 to 1200 UTC 05 June 2020
Forecast type: FROM: standard forecast or significant change
Winds: variable direction winds at 6 MPH (5 knots; 2.6 m/s)
Visibility: 6 or more miles 10+ km)
Ceiling: 4000 feet AGL
Clouds: broken clouds at 4000 feet AGL
Weather: no significant weather forecast for this period
Text: TEMPO 0412/0421 4000 RA
Forecast period: 1200 to 2100 UTC 04 June 2020
Forecast type: TEMPORARY: The following changes expected for less than half the time period
Visibility: 2.49 miles (4.01 km)
Ceiling: unknown
Clouds: missing
Weather: RA  (moderate rain)

AIRPORT MAP

 RUNWAY INFORMATION
Runway 10 Runway length 9636 ft Runway width 148 ft
Runway elevation 779 ft Runway displaced threshold 312 ft Runway heading 105
Runway 28 Runway length 9636 ft Runway width 148 ft
Runway elevation 754 ft Runway displaced threshold 427 ft Runway heading 285
Runway 12 Runway length 2552 ft Runway width 59 ft
Runway elevation 782 ft Runway displaced threshold 210 ft Runway heading 121
Runway 30 Runway length 2552 ft Runway width 59 ft
Runway elevation 782 ft Runway displaced threshold 328 ft Runway heading 301

 AIRPORT FREQUENCIES
Type APP Name MILANO APP Frequency 126.75 MHZ
Type ATIS Name ATIS Frequency 112.6 MHZ
Type GND Name ORIO GND Frequency 120.5 MHZ
Type TWR Name ORIO TWR Frequency 126.5 MHZ

 AIRPORT NEAR NAVIGATION AIDS
Type VOR-DME Name Orio Al Serio Frequency 112600 KHZ
Type NDB Name Orio Al Serio Frequency 377 KHZ



© 2020 - Royal Sky Service, All Right Reserved.